Flight Track Log - Related Links

Times and Time Zones

All times are in EDT time to prevent confusion due to time zone crossing. See the N629SA flight status page for this flight to view local times or setup timezone preferences in your user account.

Time Position Orientation Groundspeed Altitude Reporting Facility
EDT Latitude Longitude Course Direction KTS MPH feet Rate Location/Type
Mon 09:22:00 PM 26.2775 -81.8531 331° Northwest  Level Estimated
Mon 09:23:00 PM 26.3026 -81.8687 331° Northwest  Level Estimated
Mon 09:24:00 PM 26.3276 -81.8842 331° Northwest  Level Estimated
Mon 09:25:00 PM 26.3526 -81.8997 331° Northwest  Level Estimated
Mon 09:26:00 PM 26.3776 -81.9153 331° Northwest  Level Estimated
Mon 09:27:00 PM 26.4026 -81.9308 331° Northwest  Level Estimated
Mon 09:28:00 PM 26.4276 -81.9464 331° Northwest  Level Estimated
Mon 09:29:00 PM 26.4526 -81.9619 331° Northwest  Level Estimated
Mon 09:30:00 PM 26.4776 -81.9775 331° Northwest  Level Estimated
Mon 09:31:00 PM 26.5026 -81.9931 331° Northwest  Level Estimated
Mon 09:32:00 PM 26.5277 -82.0086 331° Northwest  Level Estimated
Mon 09:33:00 PM 26.5527 -82.0242 331° Northwest  Level Estimated
Mon 09:34:00 PM 26.5777 -82.0398 331° Northwest  Level Estimated
Mon 09:35:00 PM 26.6026 -82.0554 331° Northwest  Level Estimated
Mon 09:36:00 PM 26.6276 -82.0710 331° Northwest  Level Estimated
Mon 09:37:00 PM 26.6526 -82.0866 331° Northwest  Level Estimated
Mon 09:38:00 PM 26.6776 -82.1023 331° Northwest  Level Estimated
Mon 09:39:00 PM 26.7026 -82.1179 331° Northwest  Level Estimated
Mon 09:40:00 PM 26.7276 -82.1335 331° Northwest  Level Estimated
Mon 09:41:00 PM 26.7526 -82.1492 331° Northwest  Level Estimated
Mon 09:42:00 PM 26.7776 -82.1648 331° Northwest  Level Estimated
Mon 09:42:08 PM 26.9333 -82.2833 331° Northwest 136 157 4,000  Level Tampa TRACON
Mon 09:43:00 PM 26.8025 -82.1805 331° Northwest  Level Estimated
Mon 09:43:20 PM 26.9667 -82.3000 336° Northwest 135 155 4,000  Level Tampa TRACON
Mon 09:44:00 PM 26.8275 -82.1961 331° Northwest  Level Estimated
Mon 09:44:20 PM 27.0000 -82.3167 336° Northwest 139 160 4,100  Level Tampa TRACON
Mon 09:45:00 PM 26.8525 -82.2118 331° Northwest  Level Estimated
Mon 09:45:14 PM 27.0333 -82.3500 318° Northwest 137 158 4,000  Level Tampa TRACON
Mon 09:46:00 PM 26.8775 -82.2275 331° Northwest  Level Estimated
Mon 09:46:20 PM 27.0833 -82.3500 360° North 145 167 4,000  Level Tampa TRACON
Mon 09:47:00 PM 26.9025 -82.2432 331° Northwest  Level Estimated
Mon 09:47:20 PM 27.1167 -82.3500 360° North 143 165 4,000  Level Tampa TRACON
Mon 09:49:14 PM 27.1833 -82.3500 360° North 134 154 3,500 -345 Descending Tampa TRACON
Mon 09:50:14 PM 27.2333 -82.3667 343° North 128 147 3,000 -762 Descending Tampa TRACON
Mon 09:51:20 PM 27.2500 -82.4000 299° West 133 153 1,900 -571 Descending Tampa TRACON
Mon 09:52:20 PM 27.2833 -82.4167 336° Northwest 120 138 1,800  Descending Tampa TRACON
Mon 09:53:26 PM 27.3000 -82.4500 299° West 102 117 1,900 91 Climbing Tampa TRACON
Mon 09:56:00 PM 27.3527 -82.5076 316° Northwest  Level Estimated
Mon 10:03:00 PM 27.3954 -82.5544 316° Northwest  Level Estimated
Mon 10:04:00 PM 27.3954 -82.5544 13° North  Level Estimated
Mon 10:05:00 PM 27.3954 -82.5544 13° North  Level Estimated
Mon 10:06:00 PM 27.3954 -82.5544 13° North  Level Estimated
Mon 10:07:00 PM 27.3954 -82.5544 13° North  Level Estimated
Mon 10:08:00 PM 27.3954 -82.5544 13° North  Level Estimated
Mon 10:09:00 PM 27.3954 -82.5544 13° North  Level Estimated
Mon 10:10:00 PM 27.3954 -82.5544 13° North  Level Estimated
Mon 10:11:00 PM 27.3954 -82.5544 13° North  Level Estimated

Login

Don't have an account? Register now (free) for customized features, flight alerts, and more!